sensor_id;sensor_type;location;lat;lon;timestamp;temperature;humidity
13521;DHT22;6832;51.186;3.236;2022-08-26T00:00:45;25.60;62.50
13521;DHT22;6832;51.186;3.236;2022-08-26T00:03:14;25.60;62.50
13521;DHT22;6832;51.186;3.236;2022-08-26T00:05:42;25.60;62.50
13521;DHT22;6832;51.186;3.236;2022-08-26T00:08:14;25.60;62.50
13521;DHT22;6832;51.186;3.236;2022-08-26T00:10:41;25.50;62.60
13521;DHT22;6832;51.186;3.236;2022-08-26T00:13:09;25.50;62.60
13521;DHT22;6832;51.186;3.236;2022-08-26T00:15:36;25.40;62.70
13521;DHT22;6832;51.186;3.236;2022-08-26T00:18:04;25.50;62.80
13521;DHT22;6832;51.186;3.236;2022-08-26T00:20:33;25.40;62.80
13521;DHT22;6832;51.186;3.236;2022-08-26T00:23:01;25.40;62.80
13521;DHT22;6832;51.186;3.236;2022-08-26T00:25:30;25.40;62.80
13521;DHT22;6832;51.186;3.236;2022-08-26T00:28:00;25.40;62.80
13521;DHT22;6832;51.186;3.236;2022-08-26T00:30:30;25.30;62.90
13521;DHT22;6832;51.186;3.236;2022-08-26T00:33:01;25.40;63.00
13521;DHT22;6832;51.186;3.236;2022-08-26T00:35:31;25.40;63.10
13521;DHT22;6832;51.186;3.236;2022-08-26T00:38:00;25.30;63.00
13521;DHT22;6832;51.186;3.236;2022-08-26T00:40:32;25.30;63.10
13521;DHT22;6832;51.186;3.236;2022-08-26T00:43:00;25.30;63.00
13521;DHT22;6832;51.186;3.236;2022-08-26T00:45:33;25.30;63.00
13521;DHT22;6832;51.186;3.236;2022-08-26T00:48:06;25.30;63.40
13521;DHT22;6832;51.186;3.236;2022-08-26T00:50:40;25.30;63.30
13521;DHT22;6832;51.186;3.236;2022-08-26T00:53:10;25.20;63.20
13521;DHT22;6832;51.186;3.236;2022-08-26T00:55:51;25.20;63.10
13521;DHT22;6832;51.186;3.236;2022-08-26T00:58:22;25.20;63.20
13521;DHT22;6832;51.186;3.236;2022-08-26T01:00:50;25.20;63.00
13521;DHT22;6832;51.186;3.236;2022-08-26T01:03:23;25.20;62.90
13521;DHT22;6832;51.186;3.236;2022-08-26T01:05:55;25.10;62.80
13521;DHT22;6832;51.186;3.236;2022-08-26T01:08:26;25.10;62.80
13521;DHT22;6832;51.186;3.236;2022-08-26T01:10:56;25.10;62.80
13521;DHT22;6832;51.186;3.236;2022-08-26T01:13:24;25.10;62.90
13521;DHT22;6832;51.186;3.236;2022-08-26T01:15:56;25.00;62.80
13521;DHT22;6832;51.186;3.236;2022-08-26T01:18:24;25.00;63.00
13521;DHT22;6832;51.186;3.236;2022-08-26T01:20:58;25.00;62.90
13521;DHT22;6832;51.186;3.236;2022-08-26T01:23:32;25.00;63.10
13521;DHT22;6832;51.186;3.236;2022-08-26T01:26:08;25.00;63.10
13521;DHT22;6832;51.186;3.236;2022-08-26T01:28:37;24.90;63.20
13521;DHT22;6832;51.186;3.236;2022-08-26T01:31:09;24.90;63.10
13521;DHT22;6832;51.186;3.236;2022-08-26T01:33:45;24.90;63.10
13521;DHT22;6832;51.186;3.236;2022-08-26T01:36:14;24.90;63.20
13521;DHT22;6832;51.186;3.236;2022-08-26T01:38:43;24.90;63.10
13521;DHT22;6832;51.186;3.236;2022-08-26T01:41:13;24.90;63.30
13521;DHT22;6832;51.186;3.236;2022-08-26T01:43:44;24.80;63.20
13521;DHT22;6832;51.186;3.236;2022-08-26T01:46:13;24.90;63.30
13521;DHT22;6832;51.186;3.236;2022-08-26T01:48:42;24.80;63.20
13521;DHT22;6832;51.186;3.236;2022-08-26T01:51:15;24.80;63.20
13521;DHT22;6832;51.186;3.236;2022-08-26T01:53:44;24.80;63.30
13521;DHT22;6832;51.186;3.236;2022-08-26T01:56:13;24.70;63.30
13521;DHT22;6832;51.186;3.236;2022-08-26T01:58:45;24.80;63.40
13521;DHT22;6832;51.186;3.236;2022-08-26T02:01:16;24.80;63.60
13521;DHT22;6832;51.186;3.236;2022-08-26T02:03:49;24.70;63.50
13521;DHT22;6832;51.186;3.236;2022-08-26T02:06:17;24.70;63.60
13521;DHT22;6832;51.186;3.236;2022-08-26T02:08:51;24.70;63.50
13521;DHT22;6832;51.186;3.236;2022-08-26T02:11:21;24.60;63.70
13521;DHT22;6832;51.186;3.236;2022-08-26T02:13:57;24.70;63.70
13521;DHT22;6832;51.186;3.236;2022-08-26T02:16:31;24.60;63.80
13521;DHT22;6832;51.186;3.236;2022-08-26T02:19:07;24.60;63.80
13521;DHT22;6832;51.186;3.236;2022-08-26T02:21:36;24.60;63.80
13521;DHT22;6832;51.186;3.236;2022-08-26T02:24:15;24.50;63.70
13521;DHT22;6832;51.186;3.236;2022-08-26T02:26:49;24.60;63.90
13521;DHT22;6832;51.186;3.236;2022-08-26T02:29:22;24.60;63.80
13521;DHT22;6832;51.186;3.236;2022-08-26T02:31:50;24.50;63.70
13521;DHT22;6832;51.186;3.236;2022-08-26T02:34:27;24.50;63.50
13521;DHT22;6832;51.186;3.236;2022-08-26T02:36:55;24.60;64.00
13521;DHT22;6832;51.186;3.236;2022-08-26T02:39:24;24.60;63.80
13521;DHT22;6832;51.186;3.236;2022-08-26T02:41:52;24.60;63.80
13521;DHT22;6832;51.186;3.236;2022-08-26T02:44:21;24.50;63.80
13521;DHT22;6832;51.186;3.236;2022-08-26T02:46:48;24.60;64.00
13521;DHT22;6832;51.186;3.236;2022-08-26T02:49:16;24.60;64.10
13521;DHT22;6832;51.186;3.236;2022-08-26T02:51:46;24.50;64.10
13521;DHT22;6832;51.186;3.236;2022-08-26T02:54:16;24.60;64.30
13521;DHT22;6832;51.186;3.236;2022-08-26T02:56:45;24.60;64.40
13521;DHT22;6832;51.186;3.236;2022-08-26T02:59:13;24.50;64.10
13521;DHT22;6832;51.186;3.236;2022-08-26T03:01:41;24.60;64.10
13521;DHT22;6832;51.186;3.236;2022-08-26T03:04:11;24.60;64.00
13521;DHT22;6832;51.186;3.236;2022-08-26T03:06:38;24.60;63.80
13521;DHT22;6832;51.186;3.236;2022-08-26T03:09:06;24.60;63.80
13521;DHT22;6832;51.186;3.236;2022-08-26T03:11:38;24.50;63.40
13521;DHT22;6832;51.186;3.236;2022-08-26T03:14:07;24.60;63.40
13521;DHT22;6832;51.186;3.236;2022-08-26T03:16:36;24.50;63.20
13521;DHT22;6832;51.186;3.236;2022-08-26T03:19:07;24.50;63.10
13521;DHT22;6832;51.186;3.236;2022-08-26T03:21:35;24.60;63.30
13521;DHT22;6832;51.186;3.236;2022-08-26T03:24:09;24.50;63.20
13521;DHT22;6832;51.186;3.236;2022-08-26T03:26:41;24.50;63.20
13521;DHT22;6832;51.186;3.236;2022-08-26T03:29:09;24.50;63.10
13521;DHT22;6832;51.186;3.236;2022-08-26T03:31:56;24.60;63.10
13521;DHT22;6832;51.186;3.236;2022-08-26T03:34:25;24.60;63.10
13521;DHT22;6832;51.186;3.236;2022-08-26T03:36:53;24.60;63.00
13521;DHT22;6832;51.186;3.236;2022-08-26T03:39:20;24.60;63.00
13521;DHT22;6832;51.186;3.236;2022-08-26T03:41:47;24.60;63.00
13521;DHT22;6832;51.186;3.236;2022-08-26T03:44:20;24.60;63.10
13521;DHT22;6832;51.186;3.236;2022-08-26T03:46:47;24.60;63.20
13521;DHT22;6832;51.186;3.236;2022-08-26T03:49:14;24.50;63.20
13521;DHT22;6832;51.186;3.236;2022-08-26T03:51:42;24.60;63.40
13521;DHT22;6832;51.186;3.236;2022-08-26T03:54:09;24.50;63.40
13521;DHT22;6832;51.186;3.236;2022-08-26T03:56:36;24.60;63.70
13521;DHT22;6832;51.186;3.236;2022-08-26T03:59:04;24.50;63.70
13521;DHT22;6832;51.186;3.236;2022-08-26T04:01:35;24.50;63.80
13521;DHT22;6832;51.186;3.236;2022-08-26T04:04:03;24.50;64.00
13521;DHT22;6832;51.186;3.236;2022-08-26T04:06:35;24.50;63.90
13521;DHT22;6832;51.186;3.236;2022-08-26T04:09:07;24.50;64.10
13521;DHT22;6832;51.186;3.236;2022-08-26T04:11:37;24.50;64.00
13521;DHT22;6832;51.186;3.236;2022-08-26T04:14:07;24.50;64.10
13521;DHT22;6832;51.186;3.236;2022-08-26T04:16:44;24.60;64.20
13521;DHT22;6832;51.186;3.236;2022-08-26T04:19:14;24.60;64.40
13521;DHT22;6832;51.186;3.236;2022-08-26T04:21:42;24.60;64.10
13521;DHT22;6832;51.186;3.236;2022-08-26T04:24:12;24.60;64.10
13521;DHT22;6832;51.186;3.236;2022-08-26T04:26:52;24.60;64.00
13521;DHT22;6832;51.186;3.236;2022-08-26T04:29:25;24.60;64.00
13521;DHT22;6832;51.186;3.236;2022-08-26T04:31:54;24.60;63.80
13521;DHT22;6832;51.186;3.236;2022-08-26T04:34:24;24.60;63.70
13521;DHT22;6832;51.186;3.236;2022-08-26T04:36:53;24.60;63.70
13521;DHT22;6832;51.186;3.236;2022-08-26T04:39:23;24.60;63.70
13521;DHT22;6832;51.186;3.236;2022-08-26T04:41:52;24.60;63.70
13521;DHT22;6832;51.186;3.236;2022-08-26T04:44:22;24.60;63.70
13521;DHT22;6832;51.186;3.236;2022-08-26T04:46:50;24.60;63.60
13521;DHT22;6832;51.186;3.236;2022-08-26T04:49:19;24.50;63.50
13521;DHT22;6832;51.186;3.236;2022-08-26T04:51:46;24.60;63.70
13521;DHT22;6832;51.186;3.236;2022-08-26T04:54:15;24.50;63.60
13521;DHT22;6832;51.186;3.236;2022-08-26T04:56:45;24.50;63.60
13521;DHT22;6832;51.186;3.236;2022-08-26T04:59:15;24.50;63.70
13521;DHT22;6832;51.186;3.236;2022-08-26T05:01:45;24.50;63.60
13521;DHT22;6832;51.186;3.236;2022-08-26T05:04:19;24.40;63.60
13521;DHT22;6832;51.186;3.236;2022-08-26T05:07:00;24.40;63.50
13521;DHT22;6832;51.186;3.236;2022-08-26T05:09:29;24.40;63.50
13521;DHT22;6832;51.186;3.236;2022-08-26T05:11:56;24.40;63.40
13521;DHT22;6832;51.186;3.236;2022-08-26T05:14:23;24.50;63.50
13521;DHT22;6832;51.186;3.236;2022-08-26T05:16:53;24.40;63.30
13521;DHT22;6832;51.186;3.236;2022-08-26T05:19:22;24.50;63.40
13521;DHT22;6832;51.186;3.236;2022-08-26T05:21:49;24.40;63.30
13521;DHT22;6832;51.186;3.236;2022-08-26T05:24:17;24.40;63.30
13521;DHT22;6832;51.186;3.236;2022-08-26T05:26:44;24.50;63.40
13521;DHT22;6832;51.186;3.236;2022-08-26T05:29:14;24.40;63.40
13521;DHT22;6832;51.186;3.236;2022-08-26T05:31:51;24.50;63.70
13521;DHT22;6832;51.186;3.236;2022-08-26T05:34:19;24.50;63.90
13521;DHT22;6832;51.186;3.236;2022-08-26T05:36:48;24.50;63.80
13521;DHT22;6832;51.186;3.236;2022-08-26T05:39:20;24.50;64.00
13521;DHT22;6832;51.186;3.236;2022-08-26T05:41:48;24.50;64.10
13521;DHT22;6832;51.186;3.236;2022-08-26T05:44:16;24.50;64.00
13521;DHT22;6832;51.186;3.236;2022-08-26T05:46:44;24.40;63.90
13521;DHT22;6832;51.186;3.236;2022-08-26T05:49:14;24.40;63.80
13521;DHT22;6832;51.186;3.236;2022-08-26T05:51:44;24.50;64.00
13521;DHT22;6832;51.186;3.236;2022-08-26T05:54:18;24.50;64.00
13521;DHT22;6832;51.186;3.236;2022-08-26T05:56:50;24.50;64.10
13521;DHT22;6832;51.186;3.236;2022-08-26T05:59:25;24.50;64.20
13521;DHT22;6832;51.186;3.236;2022-08-26T06:01:52;24.50;64.20
13521;DHT22;6832;51.186;3.236;2022-08-26T06:04:21;24.50;64.20
13521;DHT22;6832;51.186;3.236;2022-08-26T06:06:51;24.50;64.30
13521;DHT22;6832;51.186;3.236;2022-08-26T06:09:30;24.50;64.40
13521;DHT22;6832;51.186;3.236;2022-08-26T06:11:58;24.50;64.40
13521;DHT22;6832;51.186;3.236;2022-08-26T06:14:27;24.50;64.50
13521;DHT22;6832;51.186;3.236;2022-08-26T06:16:55;24.60;65.40
13521;DHT22;6832;51.186;3.236;2022-08-26T06:19:27;24.60;64.60
13521;DHT22;6832;51.186;3.236;2022-08-26T06:21:55;24.60;64.70
13521;DHT22;6832;51.186;3.236;2022-08-26T06:24:44;24.60;64.70
13521;DHT22;6832;51.186;3.236;2022-08-26T06:27:28;24.60;64.80
13521;DHT22;6832;51.186;3.236;2022-08-26T06:29:56;24.60;65.00
13521;DHT22;6832;51.186;3.236;2022-08-26T06:32:24;24.60;65.00
13521;DHT22;6832;51.186;3.236;2022-08-26T06:34:51;24.60;65.00
13521;DHT22;6832;51.186;3.236;2022-08-26T06:37:25;24.60;64.90
13521;DHT22;6832;51.186;3.236;2022-08-26T06:40:04;24.70;65.00
13521;DHT22;6832;51.186;3.236;2022-08-26T06:42:33;24.70;65.10
13521;DHT22;6832;51.186;3.236;2022-08-26T06:45:00;24.70;65.10
13521;DHT22;6832;51.186;3.236;2022-08-26T06:47:28;24.70;65.00
13521;DHT22;6832;51.186;3.236;2022-08-26T06:49:57;24.70;64.90
13521;DHT22;6832;51.186;3.236;2022-08-26T06:52:26;24.80;65.10
13521;DHT22;6832;51.186;3.236;2022-08-26T06:54:53;24.80;64.60
13521;DHT22;6832;51.186;3.236;2022-08-26T06:57:22;24.80;64.50
13521;DHT22;6832;51.186;3.236;2022-08-26T06:59:54;24.80;64.40
13521;DHT22;6832;51.186;3.236;2022-08-26T07:02:22;24.80;64.40
13521;DHT22;6832;51.186;3.236;2022-08-26T07:04:49;24.80;64.30
13521;DHT22;6832;51.186;3.236;2022-08-26T07:07:16;24.90;64.40
13521;DHT22;6832;51.186;3.236;2022-08-26T07:09:43;24.90;64.20
13521;DHT22;6832;51.186;3.236;2022-08-26T07:12:11;24.90;64.10
13521;DHT22;6832;51.186;3.236;2022-08-26T07:14:49;24.90;64.10
13521;DHT22;6832;51.186;3.236;2022-08-26T07:17:18;24.90;64.10
13521;DHT22;6832;51.186;3.236;2022-08-26T07:19:46;24.90;64.10
13521;DHT22;6832;51.186;3.236;2022-08-26T07:22:13;24.90;64.30
13521;DHT22;6832;51.186;3.236;2022-08-26T07:24:42;24.90;64.30
13521;DHT22;6832;51.186;3.236;2022-08-26T07:27:12;25.00;64.40
13521;DHT22;6832;51.186;3.236;2022-08-26T07:29:40;25.00;64.30
13521;DHT22;6832;51.186;3.236;2022-08-26T07:32:11;25.00;64.30
13521;DHT22;6832;51.186;3.236;2022-08-26T07:34:39;25.00;64.50
13521;DHT22;6832;51.186;3.236;2022-08-26T07:37:07;24.90;64.50
13521;DHT22;6832;51.186;3.236;2022-08-26T07:39:34;25.00;64.60
13521;DHT22;6832;51.186;3.236;2022-08-26T07:42:03;24.90;65.30
13521;DHT22;6832;51.186;3.236;2022-08-26T07:44:37;25.00;64.70
13521;DHT22;6832;51.186;3.236;2022-08-26T07:47:05;25.00;64.90
13521;DHT22;6832;51.186;3.236;2022-08-26T07:49:50;25.00;64.80
13521;DHT22;6832;51.186;3.236;2022-08-26T07:52:19;25.00;65.10
13521;DHT22;6832;51.186;3.236;2022-08-26T07:54:47;25.00;65.00
13521;DHT22;6832;51.186;3.236;2022-08-26T07:57:29;25.00;64.90
13521;DHT22;6832;51.186;3.236;2022-08-26T07:59:58;25.00;64.60
13521;DHT22;6832;51.186;3.236;2022-08-26T08:02:27;25.00;64.80
13521;DHT22;6832;51.186;3.236;2022-08-26T08:04:56;25.00;64.40
13521;DHT22;6832;51.186;3.236;2022-08-26T08:07:25;25.00;64.40
13521;DHT22;6832;51.186;3.236;2022-08-26T08:09:56;25.00;64.30
13521;DHT22;6832;51.186;3.236;2022-08-26T08:12:23;25.00;63.90
13521;DHT22;6832;51.186;3.236;2022-08-26T08:14:51;25.10;63.90
13521;DHT22;6832;51.186;3.236;2022-08-26T08:17:18;25.10;63.60
13521;DHT22;6832;51.186;3.236;2022-08-26T08:19:46;25.10;63.50
13521;DHT22;6832;51.186;3.236;2022-08-26T08:22:15;25.20;63.60
13521;DHT22;6832;51.186;3.236;2022-08-26T08:24:43;25.20;64.00
13521;DHT22;6832;51.186;3.236;2022-08-26T08:27:10;25.30;63.10
13521;DHT22;6832;51.186;3.236;2022-08-26T08:29:37;25.30;63.00
13521;DHT22;6832;51.186;3.236;2022-08-26T08:32:04;25.30;62.90
13521;DHT22;6832;51.186;3.236;2022-08-26T08:34:32;25.40;63.00
13521;DHT22;6832;51.186;3.236;2022-08-26T08:37:00;25.40;62.80
13521;DHT22;6832;51.186;3.236;2022-08-26T08:39:30;25.50;62.80
13521;DHT22;6832;51.186;3.236;2022-08-26T08:42:12;25.50;62.50
13521;DHT22;6832;51.186;3.236;2022-08-26T08:44:45;25.60;62.40
13521;DHT22;6832;51.186;3.236;2022-08-26T08:47:18;25.60;62.50
13521;DHT22;6832;51.186;3.236;2022-08-26T08:49:46;25.70;62.30
13521;DHT22;6832;51.186;3.236;2022-08-26T08:52:24;25.80;62.50
13521;DHT22;6832;51.186;3.236;2022-08-26T08:54:55;25.80;62.10
13521;DHT22;6832;51.186;3.236;2022-08-26T08:57:30;25.90;61.90
13521;DHT22;6832;51.186;3.236;2022-08-26T09:00:04;25.90;61.70
13521;DHT22;6832;51.186;3.236;2022-08-26T09:02:41;26.00;61.80
13521;DHT22;6832;51.186;3.236;2022-08-26T09:05:16;26.00;61.50
13521;DHT22;6832;51.186;3.236;2022-08-26T09:07:48;26.10;60.80
13521;DHT22;6832;51.186;3.236;2022-08-26T09:10:34;26.10;61.10
13521;DHT22;6832;51.186;3.236;2022-08-26T09:13:03;26.10;61.40
13521;DHT22;6832;51.186;3.236;2022-08-26T09:15:39;26.10;61.40
13521;DHT22;6832;51.186;3.236;2022-08-26T09:18:16;26.20;61.20
13521;DHT22;6832;51.186;3.236;2022-08-26T09:20:54;26.20;61.30
13521;DHT22;6832;51.186;3.236;2022-08-26T09:23:21;26.20;61.20
13521;DHT22;6832;51.186;3.236;2022-08-26T09:25:54;26.20;61.10
13521;DHT22;6832;51.186;3.236;2022-08-26T09:28:27;26.30;60.80
13521;DHT22;6832;51.186;3.236;2022-08-26T09:31:01;26.30;60.60
13521;DHT22;6832;51.186;3.236;2022-08-26T09:33:30;26.30;60.60
13521;DHT22;6832;51.186;3.236;2022-08-26T09:36:17;26.30;60.80
13521;DHT22;6832;51.186;3.236;2022-08-26T09:38:48;26.40;61.50
13521;DHT22;6832;51.186;3.236;2022-08-26T09:41:24;26.50;61.00
13521;DHT22;6832;51.186;3.236;2022-08-26T09:44:11;26.60;60.30
13521;DHT22;6832;51.186;3.236;2022-08-26T09:46:43;26.80;60.30
13521;DHT22;6832;51.186;3.236;2022-08-26T09:49:27;26.90;60.30
13521;DHT22;6832;51.186;3.236;2022-08-26T09:52:16;27.10;59.60
13521;DHT22;6832;51.186;3.236;2022-08-26T09:54:59;27.30;59.60
13521;DHT22;6832;51.186;3.236;2022-08-26T09:57:30;27.50;58.90
13521;DHT22;6832;51.186;3.236;2022-08-26T09:59:58;27.70;59.20
13521;DHT22;6832;51.186;3.236;2022-08-26T10:02:36;27.90;59.10
13521;DHT22;6832;51.186;3.236;2022-08-26T10:05:09;28.10;57.60
13521;DHT22;6832;51.186;3.236;2022-08-26T10:07:45;28.20;57.90
13521;DHT22;6832;51.186;3.236;2022-08-26T10:10:18;28.30;57.40
13521;DHT22;6832;51.186;3.236;2022-08-26T10:13:03;28.40;57.00
13521;DHT22;6832;51.186;3.236;2022-08-26T10:15:45;28.50;56.00
13521;DHT22;6832;51.186;3.236;2022-08-26T10:18:36;28.50;55.90
13521;DHT22;6832;51.186;3.236;2022-08-26T10:21:09;28.50;55.40
13521;DHT22;6832;51.186;3.236;2022-08-26T10:23:41;28.50;55.80
13521;DHT22;6832;51.186;3.236;2022-08-26T10:26:12;28.50;55.50
13521;DHT22;6832;51.186;3.236;2022-08-26T10:28:47;28.40;55.20
13521;DHT22;6832;51.186;3.236;2022-08-26T10:31:27;28.40;55.10
13521;DHT22;6832;51.186;3.236;2022-08-26T10:33:57;28.40;55.10
13521;DHT22;6832;51.186;3.236;2022-08-26T10:36:26;28.40;55.30
13521;DHT22;6832;51.186;3.236;2022-08-26T10:39:21;28.40;55.30
13521;DHT22;6832;51.186;3.236;2022-08-26T10:41:54;28.50;54.90
13521;DHT22;6832;51.186;3.236;2022-08-26T10:44:26;28.50;55.40
13521;DHT22;6832;51.186;3.236;2022-08-26T10:47:05;28.50;55.10
13521;DHT22;6832;51.186;3.236;2022-08-26T10:49:35;28.60;54.70
13521;DHT22;6832;51.186;3.236;2022-08-26T10:52:10;28.70;54.80
13521;DHT22;6832;51.186;3.236;2022-08-26T10:54:43;28.70;54.30
13521;DHT22;6832;51.186;3.236;2022-08-26T10:57:17;28.70;54.70
13521;DHT22;6832;51.186;3.236;2022-08-26T10:59:55;28.70;54.70
13521;DHT22;6832;51.186;3.236;2022-08-26T11:02:48;28.70;54.00
13521;DHT22;6832;51.186;3.236;2022-08-26T11:05:39;28.70;54.20
13521;DHT22;6832;51.186;3.236;2022-08-26T11:08:28;28.70;53.50
13521;DHT22;6832;51.186;3.236;2022-08-26T11:10:58;28.70;53.70
13521;DHT22;6832;51.186;3.236;2022-08-26T11:14:01;28.70;54.30
13521;DHT22;6832;51.186;3.236;2022-08-26T11:16:34;28.60;53.50
13521;DHT22;6832;51.186;3.236;2022-08-26T11:19:03;28.60;53.60
13521;DHT22;6832;51.186;3.236;2022-08-26T11:21:43;28.60;54.00
13521;DHT22;6832;51.186;3.236;2022-08-26T11:24:38;28.60;53.70
13521;DHT22;6832;51.186;3.236;2022-08-26T11:27:08;28.70;54.20
13521;DHT22;6832;51.186;3.236;2022-08-26T11:29:56;28.70;54.90
13521;DHT22;6832;51.186;3.236;2022-08-26T11:35:13;28.90;53.90
13521;DHT22;6832;51.186;3.236;2022-08-26T11:38:02;29.00;53.80
13521;DHT22;6832;51.186;3.236;2022-08-26T11:40:33;29.00;53.70
13521;DHT22;6832;51.186;3.236;2022-08-26T11:43:06;29.10;53.60
13521;DHT22;6832;51.186;3.236;2022-08-26T11:45:38;29.20;53.00
13521;DHT22;6832;51.186;3.236;2022-08-26T11:48:15;29.30;52.60
13521;DHT22;6832;51.186;3.236;2022-08-26T11:50:52;29.40;52.30
13521;DHT22;6832;51.186;3.236;2022-08-26T11:53:20;29.60;52.40
13521;DHT22;6832;51.186;3.236;2022-08-26T11:55:49;29.70;53.20
13521;DHT22;6832;51.186;3.236;2022-08-26T11:58:19;29.90;52.90
13521;DHT22;6832;51.186;3.236;2022-08-26T12:00:57;30.00;52.20
13521;DHT22;6832;51.186;3.236;2022-08-26T12:03:34;30.10;51.40
13521;DHT22;6832;51.186;3.236;2022-08-26T12:06:02;30.30;51.50
13521;DHT22;6832;51.186;3.236;2022-08-26T12:08:39;30.30;51.60
13521;DHT22;6832;51.186;3.236;2022-08-26T12:11:10;30.50;51.30
13521;DHT22;6832;51.186;3.236;2022-08-26T12:13:38;30.60;51.00
13521;DHT22;6832;51.186;3.236;2022-08-26T12:16:07;30.60;51.00
13521;DHT22;6832;51.186;3.236;2022-08-26T12:18:40;30.60;50.50
13521;DHT22;6832;51.186;3.236;2022-08-26T12:21:12;30.60;50.50
13521;DHT22;6832;51.186;3.236;2022-08-26T12:23:42;30.70;50.40
13521;DHT22;6832;51.186;3.236;2022-08-26T12:26:19;30.80;50.90
13521;DHT22;6832;51.186;3.236;2022-08-26T12:28:49;30.80;49.90
13521;DHT22;6832;51.186;3.236;2022-08-26T12:31:27;30.90;50.00
13521;DHT22;6832;51.186;3.236;2022-08-26T12:33:56;31.10;49.90
13521;DHT22;6832;51.186;3.236;2022-08-26T12:36:29;31.10;49.90
13521;DHT22;6832;51.186;3.236;2022-08-26T12:39:06;31.20;49.70
13521;DHT22;6832;51.186;3.236;2022-08-26T12:41:41;31.30;49.40
13521;DHT22;6832;51.186;3.236;2022-08-26T12:47:24;31.60;48.20
13521;DHT22;6832;51.186;3.236;2022-08-26T12:50:02;31.70;48.60
13521;DHT22;6832;51.186;3.236;2022-08-26T12:52:33;31.70;48.40
13521;DHT22;6832;51.186;3.236;2022-08-26T12:55:06;31.80;49.20
13521;DHT22;6832;51.186;3.236;2022-08-26T12:57:36;31.90;48.40
13521;DHT22;6832;51.186;3.236;2022-08-26T13:00:33;32.00;48.10
13521;DHT22;6832;51.186;3.236;2022-08-26T13:03:02;32.00;47.30
13521;DHT22;6832;51.186;3.236;2022-08-26T13:05:32;32.10;48.00
13521;DHT22;6832;51.186;3.236;2022-08-26T13:08:11;32.20;47.40
13521;DHT22;6832;51.186;3.236;2022-08-26T13:10:41;32.10;46.90
13521;DHT22;6832;51.186;3.236;2022-08-26T13:13:08;32.20;47.40
13521;DHT22;6832;51.186;3.236;2022-08-26T13:15:36;32.20;47.30
13521;DHT22;6832;51.186;3.236;2022-08-26T13:18:03;32.10;47.30
13521;DHT22;6832;51.186;3.236;2022-08-26T13:20:34;32.10;47.10
13521;DHT22;6832;51.186;3.236;2022-08-26T13:23:08;32.00;46.80
13521;DHT22;6832;51.186;3.236;2022-08-26T13:25:35;31.90;46.90
13521;DHT22;6832;51.186;3.236;2022-08-26T13:28:03;31.80;47.20
13521;DHT22;6832;51.186;3.236;2022-08-26T13:30:31;31.70;47.10
13521;DHT22;6832;51.186;3.236;2022-08-26T13:32:59;31.60;46.80
13521;DHT22;6832;51.186;3.236;2022-08-26T13:35:26;31.50;46.80
13521;DHT22;6832;51.186;3.236;2022-08-26T13:37:55;31.30;46.70
13521;DHT22;6832;51.186;3.236;2022-08-26T13:40:22;31.20;46.90
13521;DHT22;6832;51.186;3.236;2022-08-26T13:42:50;31.10;46.90
13521;DHT22;6832;51.186;3.236;2022-08-26T13:45:17;30.90;46.90
13521;DHT22;6832;51.186;3.236;2022-08-26T13:47:46;30.80;47.30
13521;DHT22;6832;51.186;3.236;2022-08-26T13:50:14;30.60;47.30
13521;DHT22;6832;51.186;3.236;2022-08-26T13:52:43;30.50;47.50
13521;DHT22;6832;51.186;3.236;2022-08-26T13:55:12;30.40;47.70
13521;DHT22;6832;51.186;3.236;2022-08-26T13:57:40;30.30;47.90
13521;DHT22;6832;51.186;3.236;2022-08-26T14:00:08;30.30;48.00
13521;DHT22;6832;51.186;3.236;2022-08-26T14:02:37;30.20;48.10
13521;DHT22;6832;51.186;3.236;2022-08-26T14:05:05;30.10;47.80
13521;DHT22;6832;51.186;3.236;2022-08-26T14:07:40;30.10;48.00
13521;DHT22;6832;51.186;3.236;2022-08-26T14:10:07;30.00;47.70
13521;DHT22;6832;51.186;3.236;2022-08-26T14:12:36;29.90;48.20
13521;DHT22;6832;51.186;3.236;2022-08-26T14:15:05;29.90;48.20
13521;DHT22;6832;51.186;3.236;2022-08-26T14:17:32;29.80;48.30
13521;DHT22;6832;51.186;3.236;2022-08-26T14:19:59;29.70;48.40
13521;DHT22;6832;51.186;3.236;2022-08-26T14:22:27;29.70;48.60
13521;DHT22;6832;51.186;3.236;2022-08-26T14:24:55;29.60;48.70
13521;DHT22;6832;51.186;3.236;2022-08-26T14:27:24;29.60;48.90
13521;DHT22;6832;51.186;3.236;2022-08-26T14:29:58;29.50;48.80
13521;DHT22;6832;51.186;3.236;2022-08-26T14:32:26;29.40;48.80
13521;DHT22;6832;51.186;3.236;2022-08-26T14:34:55;29.40;48.80
13521;DHT22;6832;51.186;3.236;2022-08-26T14:37:23;29.30;49.00
13521;DHT22;6832;51.186;3.236;2022-08-26T14:39:51;29.20;49.00
13521;DHT22;6832;51.186;3.236;2022-08-26T14:42:21;29.20;49.10
13521;DHT22;6832;51.186;3.236;2022-08-26T14:44:53;29.10;49.10
13521;DHT22;6832;51.186;3.236;2022-08-26T14:47:23;29.10;49.10
13521;DHT22;6832;51.186;3.236;2022-08-26T14:49:52;29.10;49.30
13521;DHT22;6832;51.186;3.236;2022-08-26T14:52:19;29.00;49.30
13521;DHT22;6832;51.186;3.236;2022-08-26T14:54:49;29.00;49.30
13521;DHT22;6832;51.186;3.236;2022-08-26T14:57:16;28.90;49.30
13521;DHT22;6832;51.186;3.236;2022-08-26T14:59:45;28.90;49.40
13521;DHT22;6832;51.186;3.236;2022-08-26T15:02:14;28.80;49.60
13521;DHT22;6832;51.186;3.236;2022-08-26T15:04:43;28.80;49.40
13521;DHT22;6832;51.186;3.236;2022-08-26T15:07:10;28.70;49.40
13521;DHT22;6832;51.186;3.236;2022-08-26T15:09:43;28.70;49.50
13521;DHT22;6832;51.186;3.236;2022-08-26T15:12:10;28.60;49.50
13521;DHT22;6832;51.186;3.236;2022-08-26T15:14:39;28.60;49.60
13521;DHT22;6832;51.186;3.236;2022-08-26T15:17:06;28.60;49.70
13521;DHT22;6832;51.186;3.236;2022-08-26T15:19:33;28.50;49.60
13521;DHT22;6832;51.186;3.236;2022-08-26T15:22:04;28.50;49.70
13521;DHT22;6832;51.186;3.236;2022-08-26T15:24:31;28.50;49.30
13521;DHT22;6832;51.186;3.236;2022-08-26T15:26:58;28.40;49.40
13521;DHT22;6832;51.186;3.236;2022-08-26T15:29:26;28.40;49.40
13521;DHT22;6832;51.186;3.236;2022-08-26T15:31:54;28.30;49.40
13521;DHT22;6832;51.186;3.236;2022-08-26T15:34:22;28.30;49.50
13521;DHT22;6832;51.186;3.236;2022-08-26T15:36:50;28.30;49.60
13521;DHT22;6832;51.186;3.236;2022-08-26T15:39:24;28.20;49.60
13521;DHT22;6832;51.186;3.236;2022-08-26T15:41:52;28.10;49.40
13521;DHT22;6832;51.186;3.236;2022-08-26T15:44:21;28.10;49.40
13521;DHT22;6832;51.186;3.236;2022-08-26T15:46:49;28.10;49.40
13521;DHT22;6832;51.186;3.236;2022-08-26T15:49:20;28.00;49.40
13521;DHT22;6832;51.186;3.236;2022-08-26T15:51:48;28.00;49.70
13521;DHT22;6832;51.186;3.236;2022-08-26T15:54:20;28.00;49.70
13521;DHT22;6832;51.186;3.236;2022-08-26T15:56:54;28.00;49.70
13521;DHT22;6832;51.186;3.236;2022-08-26T15:59:23;27.90;49.70
13521;DHT22;6832;51.186;3.236;2022-08-26T16:01:51;28.00;49.50
13521;DHT22;6832;51.186;3.236;2022-08-26T16:04:21;27.90;49.40
13521;DHT22;6832;51.186;3.236;2022-08-26T16:06:48;27.90;49.60
13521;DHT22;6832;51.186;3.236;2022-08-26T16:09:16;27.90;49.50
13521;DHT22;6832;51.186;3.236;2022-08-26T16:11:45;27.90;49.60
13521;DHT22;6832;51.186;3.236;2022-08-26T16:14:14;27.80;49.60
13521;DHT22;6832;51.186;3.236;2022-08-26T16:16:41;27.80;49.60